createdAt,value
2023-04-02T00:01:08.013Z,100.00
2023-04-02T00:06:31.317Z,100.00
2023-04-02T00:11:38.307Z,100.00
2023-04-02T00:16:40.969Z,100.00
2023-04-02T00:21:46.880Z,100.00
2023-04-02T00:26:52.979Z,100.00
2023-04-02T00:32:14.738Z,100.00
2023-04-02T00:37:24.820Z,100.00
2023-04-02T00:42:33.283Z,100.00
2023-04-02T00:47:39.827Z,100.00
2023-04-02T00:52:46.209Z,100.00
2023-04-02T00:57:50.812Z,100.00
2023-04-02T01:03:31.275Z,100.00
2023-04-02T01:09:03.301Z,100.00
2023-04-02T01:14:17.971Z,100.00
2023-04-02T01:19:48.279Z,100.00
2023-04-02T01:24:51.464Z,100.00
2023-04-02T01:29:57.602Z,100.00
2023-04-02T01:35:02.218Z,100.00
2023-04-02T01:40:31.259Z,100.00
2023-04-02T01:45:43.808Z,100.00
2023-04-02T01:50:58.956Z,100.00
2023-04-02T01:56:03.040Z,100.00
2023-04-02T02:01:10.510Z,100.00
2023-04-02T02:06:18.593Z,100.00
2023-04-02T02:11:25.157Z,100.00
2023-04-02T02:16:31.096Z,100.00
2023-04-02T02:21:45.290Z,100.00
2023-04-02T02:26:52.913Z,100.00
2023-04-02T02:32:08.725Z,100.00
2023-04-02T02:37:24.911Z,100.00
2023-04-02T02:42:33.630Z,100.00
2023-04-02T02:47:39.197Z,100.00
2023-04-02T02:52:48.358Z,100.00
2023-04-02T02:58:01.128Z,100.00
2023-04-02T03:03:09.231Z,100.00
2023-04-02T03:08:22.990Z,100.00
2023-04-02T03:13:33.603Z,100.00
2023-04-02T03:18:46.068Z,100.00
2023-04-02T03:23:54.859Z,100.00
2023-04-02T03:29:07.329Z,100.00
2023-04-02T03:34:24.621Z,100.00
2023-04-02T03:39:50.505Z,100.00
2023-04-02T03:45:21.250Z,100.00
2023-04-02T03:50:24.992Z,100.00
2023-04-02T03:55:31.501Z,100.00
2023-04-02T04:00:52.713Z,100.00
2023-04-02T04:06:15.413Z,100.00
2023-04-02T04:11:23.988Z,100.00
2023-04-02T04:17:14.767Z,100.00
2023-04-02T04:22:20.638Z,100.00
2023-04-02T04:27:35.770Z,100.00
2023-04-02T04:33:06.107Z,100.00
2023-04-02T04:38:22.890Z,100.00
2023-04-02T04:43:45.262Z,100.00
2023-04-02T04:48:57.135Z,100.00
2023-04-02T04:54:02.102Z,100.00
2023-04-02T04:59:16.237Z,100.00
2023-04-02T05:04:37.050Z,100.00
2023-04-02T05:09:44.265Z,100.00
2023-04-02T05:15:15.276Z,100.00
2023-04-02T05:20:24.144Z,100.00
2023-04-02T05:25:33.031Z,100.00
2023-04-02T05:30:53.756Z,100.00
2023-04-02T05:35:59.194Z,100.00
2023-04-02T05:41:04.117Z,100.00
2023-04-02T05:46:25.158Z,100.00
2023-04-02T05:51:47.301Z,100.00
2023-04-02T05:56:56.748Z,100.00
2023-04-02T06:02:17.629Z,100.00
2023-04-02T06:07:26.670Z,100.00
2023-04-02T06:12:59.105Z,100.00
2023-04-02T06:18:20.101Z,100.00
2023-04-02T06:23:43.230Z,100.00
2023-04-02T06:29:09.497Z,100.00
2023-04-02T06:34:17.240Z,100.00
2023-04-02T06:39:23.874Z,100.00
2023-04-02T06:44:30.352Z,100.00
2023-04-02T06:49:47.921Z,100.00
2023-04-02T06:54:50.897Z,100.00
2023-04-02T07:00:00.824Z,100.00
2023-04-02T07:05:06.654Z,100.00
2023-04-02T07:10:10.288Z,100.00
2023-04-02T07:15:17.503Z,100.00
2023-04-02T07:20:36.377Z,100.00
2023-04-02T07:25:39.252Z,100.00
2023-04-02T07:30:42.220Z,100.00
2023-04-02T07:35:45.957Z,100.00
2023-04-02T07:40:48.858Z,100.00
2023-04-02T07:46:01.975Z,100.00
2023-04-02T07:51:05.238Z,100.00
2023-04-02T07:56:09.526Z,100.00
2023-04-02T08:01:27.611Z,100.00
2023-04-02T08:06:31.100Z,100.00
2023-04-02T08:11:33.908Z,100.00
2023-04-02T08:16:53.229Z,100.00
2023-04-02T08:22:05.832Z,100.00
2023-04-02T08:27:08.950Z,100.00
2023-04-02T08:32:16.518Z,100.00
2023-04-02T08:37:19.545Z,100.00
2023-04-02T08:42:53.035Z,100.00
2023-04-02T08:47:58.594Z,100.00
2023-04-02T08:53:04.704Z,100.00
2023-04-02T08:58:25.766Z,100.00
2023-04-02T09:03:43.706Z,100.00
2023-04-02T09:08:49.690Z,100.00
2023-04-02T09:13:58.451Z,100.00
2023-04-02T09:19:02.615Z,100.00
2023-04-02T09:24:06.034Z,100.00
2023-04-02T09:29:45.588Z,100.00
2023-04-02T09:34:49.003Z,100.00
2023-04-02T09:39:52.612Z,100.00
2023-04-02T09:45:23.029Z,96.83
2023-04-02T09:50:35.786Z,89.44
2023-04-02T09:55:38.630Z,91.18
2023-04-02T10:00:50.726Z,82.00
2023-04-02T10:06:14.927Z,81.79
2023-04-02T11:56:48.331Z,70.08
2023-04-02T12:01:58.454Z,73.70
2023-04-02T12:07:20.782Z,67.69
2023-04-02T12:12:36.754Z,72.82
2023-04-02T12:17:41.496Z,64.83
2023-04-02T12:22:58.494Z,65.12
2023-04-02T12:28:10.410Z,66.91
2023-04-02T12:33:34.812Z,67.88
2023-04-02T12:38:46.220Z,66.10
2023-04-02T12:43:57.251Z,67.74
2023-04-02T12:49:08.563Z,64.66
2023-04-02T12:54:18.324Z,68.00
2023-04-02T12:59:37.009Z,65.46
2023-04-02T13:04:48.575Z,64.65
2023-04-02T13:10:23.895Z,63.10
2023-04-02T13:15:38.009Z,64.19
2023-04-02T13:20:58.175Z,61.42
2023-04-02T13:26:04.117Z,85.31
2023-04-02T13:31:20.226Z,100.00
2023-04-02T13:36:24.579Z,100.00
2023-04-02T13:41:30.298Z,100.00
2023-04-02T13:46:35.358Z,100.00
2023-04-02T13:51:51.765Z,100.00
2023-04-02T13:56:57.060Z,100.00
2023-04-02T14:02:06.646Z,100.00
2023-04-02T14:07:35.616Z,100.00
2023-04-02T14:13:19.775Z,100.00
2023-04-02T14:18:42.112Z,100.00
2023-04-02T14:23:59.966Z,100.00
2023-04-02T14:29:28.222Z,100.00
2023-04-02T14:34:58.738Z,100.00
2023-04-02T14:40:35.429Z,100.00
2023-04-02T14:45:56.120Z,100.00
2023-04-02T14:51:31.929Z,100.00
2023-04-02T14:56:40.629Z,100.00
2023-04-02T15:02:04.647Z,100.00
2023-04-02T15:07:17.288Z,100.00
2023-04-02T15:12:33.648Z,100.00
2023-04-02T15:17:37.074Z,100.00
2023-04-02T15:22:56.930Z,100.00
2023-04-02T15:28:17.006Z,100.00
2023-04-02T15:33:41.482Z,100.00
2023-04-02T15:38:54.158Z,100.00
2023-04-02T15:44:11.888Z,100.00
2023-04-02T15:49:43.666Z,100.00
2023-04-02T15:54:56.846Z,100.00
2023-04-02T16:00:16.038Z,100.00
2023-04-02T16:05:39.635Z,100.00
2023-04-02T16:10:43.387Z,100.00
2023-04-02T16:15:56.279Z,100.00
2023-04-02T16:21:04.059Z,100.00
2023-04-02T16:26:47.647Z,100.00
2023-04-02T16:32:04.758Z,100.00
2023-04-02T16:37:49.040Z,100.00
2023-04-02T16:43:12.252Z,100.00
2023-04-02T16:48:49.350Z,100.00
2023-04-02T16:54:01.941Z,100.00
2023-04-02T16:59:39.668Z,100.00
2023-04-02T17:04:59.913Z,100.00
2023-04-02T17:10:30.808Z,100.00
2023-04-02T17:15:41.597Z,100.00
2023-04-02T17:20:44.774Z,100.00
2023-04-02T17:54:32.072Z,100.00
2023-04-02T17:59:59.419Z,100.00
2023-04-02T18:05:11.335Z,100.00
2023-04-02T18:10:46.791Z,100.00
2023-04-02T18:16:17.605Z,100.00
2023-04-02T18:21:26.515Z,100.00
2023-04-02T18:27:07.593Z,100.00
2023-04-02T18:32:37.135Z,100.00
2023-04-02T18:38:10.690Z,100.00
2023-04-02T18:43:29.926Z,100.00
2023-04-02T18:49:08.661Z,100.00
2023-04-02T18:54:24.631Z,100.00
2023-04-02T18:59:47.419Z,100.00
2023-04-02T19:05:01.702Z,100.00
2023-04-02T19:10:30.468Z,100.00
2023-04-02T19:15:54.852Z,100.00
2023-04-02T19:21:29.871Z,100.00
2023-04-02T19:27:04.501Z,100.00
2023-04-02T19:32:24.026Z,100.00
2023-04-02T19:37:40.450Z,100.00
2023-04-02T19:42:44.460Z,100.00
2023-04-02T19:47:47.181Z,100.00
2023-04-02T19:52:49.748Z,100.00
2023-04-02T19:58:00.991Z,100.00
2023-04-02T20:03:11.467Z,100.00
2023-04-02T20:08:14.299Z,100.00
2023-04-02T20:13:17.376Z,100.00
2023-04-02T20:18:21.133Z,100.00
2023-04-02T20:23:27.947Z,100.00
2023-04-02T20:28:32.040Z,100.00
2023-04-02T20:33:35.153Z,100.00
2023-04-02T20:38:38.553Z,100.00
2023-04-02T20:43:43.568Z,100.00
2023-04-02T20:48:47.748Z,100.00
2023-04-02T20:53:52.032Z,100.00
2023-04-02T20:58:54.634Z,100.00
2023-04-02T21:03:59.847Z,100.00
2023-04-02T21:09:17.149Z,100.00
2023-04-02T21:14:32.829Z,100.00
2023-04-02T21:19:36.824Z,100.00
2023-04-02T21:24:39.467Z,100.00
2023-04-02T21:29:42.270Z,100.00
2023-04-02T21:34:45.237Z,100.00
2023-04-02T21:39:48.084Z,100.00
2023-04-02T21:44:51.129Z,100.00
2023-04-02T21:49:54.228Z,100.00
2023-04-02T21:54:57.424Z,100.00
2023-04-02T22:00:01.635Z,100.00
2023-04-02T22:05:04.929Z,100.00
2023-04-02T22:10:09.028Z,100.00
2023-04-02T22:15:12.508Z,100.00
2023-04-02T22:20:15.408Z,100.00
2023-04-02T22:25:18.323Z,100.00
2023-04-02T22:30:21.113Z,100.00
2023-04-02T22:35:23.714Z,100.00
2023-04-02T22:40:26.805Z,100.00
2023-04-02T22:45:29.848Z,100.00
2023-04-02T22:50:42.469Z,100.00
2023-04-02T22:55:45.233Z,100.00
2023-04-02T23:00:48.844Z,100.00
2023-04-02T23:06:03.122Z,100.00
2023-04-02T23:11:11.035Z,100.00
2023-04-02T23:16:15.130Z,100.00
2023-04-02T23:21:19.304Z,100.00
2023-04-02T23:26:25.658Z,100.00
2023-04-02T23:31:28.587Z,100.00
2023-04-02T23:36:33.584Z,100.00
2023-04-02T23:41:38.916Z,100.00
2023-04-02T23:46:42.418Z,100.00
2023-04-02T23:51:45.354Z,100.00
2023-04-02T23:56:48.596Z,100.00
